< < Back
Terminal Aerodrome Forecast


Current Version              Previous Versions:   1  2  3  4  5  6  7  8  9  

Terminal Aerodrome Forecast

794
FTUS44 KMRX 061034 AAA
TAFCHA
TAF AMD
KCHA 061034Z 0611/0706 00000KT P6SM BKN025 BKN050
      TEMPO 0611/0613 6SM BR SCT025
     FM061300 22004KT P6SM SCT030 SCT250
     FM061800 24007KT P6SM SCT045
     FM070100 VRB02KT P6SM FEW050=



Latest METAR

522
SAUS80 KWBC 070600
MTRCHA
METAR KCHA 070553Z AUTO 16003KT 10SM CLR 23/21 A3012 RMK AO2 SLP191
T02330211 10289 20233 51007


USA.gov is the U.S. government's official web portal to all federal, state and local government web resources and services.